Airfield :
LOGIN :

Register | Disclaimer

   EN    FR    IT 

 










Legend :    VFR   Marginal VFR   IFR   Intensive IFR   Very Intensive IFR
Visi :
Ceiling :
>= 8 km
>= 3000ft
5 to 8 km
1000 to 3000 ft
1500m to 5 km
500 to 1000 ft
800 to 1500m
200 to 500 ft
< 800m
< 200 ft
Symbols :   Thunderstorms  Fog  Heavy snow  Heavy precipitations  Wind > 20 kt
SIGMETs :     Misc.  Thunderstorms  Icing  Turbulence  Mountain Waves  Volcanic Ashes






- Airport Elevation : 144 ft
- IATA code : PGF


LFMP - Perpignan

CURRENT METAR :
  • 162130Z AUTO VRB02KT 9999 FEW050 07/04 Q1010 BECMG 30012KT

EXPIRED METARs :
  • 162100Z AUTO 32004KT 290V350 9999 BKN048 BKN062 BKN092 08/04 Q1010 NOSIG
  • 162030Z AUTO 27003KT 9999 BKN052 OVC068 07/05 Q1011 NOSIG
  • 162000Z AUTO VRB03KT 9999 BKN064 OVC076 07/05 Q1011 NOSIG
  • 161930Z AUTO 27003KT 230V310 9999 OVC078 07/04 Q1011 NOSIG
  • 161900Z AUTO 25003KT 9999 BKN084 06/04 Q1011 NOSIG

TAF TAF LFMP
Valid from the 16 at 15:00 until the 17 at 15:00 UTC


161400Z 1615/1715 VRB02KT CAVOK
BECMG 1621/1624 30012KT
TEMPO 1700/1715 32015G25KT
PROB30
TEMPO 1702/1715 SHRA BKN020TCU
ATIS : +33 4 68 63 75 12



MET'MAP, your aeronautical weather chart ! - Copyright ORBIFLY December 2007 - Disclaimer

ORBIFLY MET'MAP TEAM :

Programming & Development : Alexandra Zaïnal
Concept & Development : Baudouin d'Aumeries
Co-Development & Prog : Marc-Olivier Méhu
Technical & hardware support : Manuel Goepfert

Contact : metmap@orbifly.com




SOURCES & CREDITS :

   NOAA